Time;durP1;ratioP1;P1;durP2;ratioP2;P2;SDS_P1;SDS_P2;PMS_P1;PMS_P2;Temp;Humidity;BMP_temperature;BMP_pressure;BME280_temperature;BME280_humidity;BME280_pressure;Samples;Min_cycle;Max_cycle;Signal;HPM_P1;HPM_P2
2022/08/06 00:00:47;;;;;;;5.80;3.85;;;;;;;;;;4960425;28;20030;-77
2022/08/06 00:03:13;;;;;;;7.57;4.50;;;;;;;;;;4960292;28;20476;-79
2022/08/06 00:05:38;;;;;;;5.35;3.70;;;;;;;;;;4977082;28;20502;-77
2022/08/06 00:08:04;;;;;;;6.05;3.50;;;;;;;;;;4959563;28;20027;-74
2022/08/06 00:10:30;;;;;;;7.90;3.20;;;;;;;;;;4963453;28;20062;-77
2022/08/06 00:12:59;;;;;;;5.38;3.53;;;;;;;;;;4979129;28;20059;-76
2022/08/06 00:15:25;;;;;;;5.55;2.97;;;;;;;;;;4964253;28;20063;-76
2022/08/06 00:17:50;;;;;;;8.18;3.30;;;;;;;;;;4958521;28;20113;-77
2022/08/06 00:20:16;;;;;;;4.95;2.42;;;;;;;;;;4959520;28;20480;-78
2022/08/06 00:22:42;;;;;;;4.60;2.38;;;;;;;;;;4962991;28;20495;-78
2022/08/06 00:25:09;;;;;;;4.65;2.10;;;;;;;;;;4964505;28;20471;-78
2022/08/06 00:27:35;;;;;;;4.18;1.98;;;;;;;;;;4957990;28;20043;-77
2022/08/06 00:30:01;;;;;;;4.20;2.03;;;;;;;;;;4964961;28;20029;-77
2022/08/06 00:32:26;;;;;;;4.30;2.25;;;;;;;;;;4959722;28;20447;-78
2022/08/06 00:34:52;;;;;;;2.78;1.83;;;;;;;;;;4972676;28;20542;-77
2022/08/06 00:37:17;;;;;;;8.48;1.80;;;;;;;;;;4973205;28;20033;-77
2022/08/06 00:39:43;;;;;;;5.78;1.95;;;;;;;;;;4962703;28;20063;-77
2022/08/06 00:42:08;;;;;;;3.13;2.13;;;;;;;;;;4967521;28;20046;-77
2022/08/06 00:44:34;;;;;;;3.53;1.80;;;;;;;;;;4978921;28;20475;-78
2022/08/06 00:47:00;;;;;;;2.75;1.60;;;;;;;;;;4957236;28;20491;-78
2022/08/06 00:49:25;;;;;;;4.88;2.00;;;;;;;;;;4953769;28;20181;-78
2022/08/06 00:51:51;;;;;;;9.27;2.33;;;;;;;;;;4966689;28;20439;-78
2022/08/06 00:54:16;;;;;;;9.45;2.63;;;;;;;;;;4976886;28;20081;-78
2022/08/06 00:56:42;;;;;;;12.57;3.38;;;;;;;;;;4978291;28;20034;-79
2022/08/06 00:59:08;;;;;;;15.57;3.95;;;;;;;;;;4959725;28;20034;-78
2022/08/06 01:01:33;;;;;;;12.45;3.20;;;;;;;;;;4964932;28;20510;-77
2022/08/06 01:03:59;;;;;;;10.95;3.13;;;;;;;;;;4958257;28;20035;-77
2022/08/06 01:06:24;;;;;;;8.95;3.30;;;;;;;;;;4967443;28;20287;-78
2022/08/06 01:08:50;;;;;;;4.45;2.28;;;;;;;;;;4975239;28;20103;-77
2022/08/06 01:11:15;;;;;;;5.07;2.95;;;;;;;;;;4976658;28;20384;-78
2022/08/06 01:13:40;;;;;;;13.95;3.63;;;;;;;;;;4976843;28;20058;-77
2022/08/06 01:16:17;;;;;;;7.55;2.83;;;;;;;;;;4963009;28;20038;-77
2022/08/06 01:19:01;;;;;;;5.50;2.67;;;;;;;;;;4959246;28;20039;-76
2022/08/06 01:21:29;;;;;;;10.48;3.85;;;;;;;;;;4951718;28;20035;-76
2022/08/06 01:24:11;;;;;;;7.50;3.38;;;;;;;;;;4952864;28;20041;-78
2022/08/06 01:26:50;;;;;;;4.63;2.58;;;;;;;;;;4973280;28;20043;-77
2022/08/06 01:29:25;;;;;;;4.63;2.40;;;;;;;;;;4962191;28;20034;-79
2022/08/06 01:31:59;;;;;;;6.15;2.60;;;;;;;;;;4978402;28;20041;-79
2022/08/06 01:34:31;;;;;;;6.70;2.58;;;;;;;;;;4957246;28;20034;-76
2022/08/06 01:37:14;;;;;;;3.35;2.40;;;;;;;;;;4972576;28;20487;-79
2022/08/06 01:39:43;;;;;;;5.28;2.55;;;;;;;;;;4961511;28;20101;-79
2022/08/06 01:42:11;;;;;;;5.43;2.53;;;;;;;;;;4976037;28;20125;-78
2022/08/06 01:44:39;;;;;;;3.55;2.75;;;;;;;;;;4963815;28;20089;-78
2022/08/06 01:47:08;;;;;;;4.65;2.58;;;;;;;;;;4958601;28;20158;-76
2022/08/06 01:49:36;;;;;;;5.00;2.38;;;;;;;;;;4957590;28;20039;-77
2022/08/06 01:52:04;;;;;;;8.00;2.67;;;;;;;;;;4962466;28;20332;-77
2022/08/06 01:54:31;;;;;;;7.57;2.38;;;;;;;;;;4957147;28;20090;-76
2022/08/06 01:57:00;;;;;;;9.30;3.13;;;;;;;;;;4962550;28;20039;-77
2022/08/06 01:59:31;;;;;;;9.80;3.67;;;;;;;;;;4957005;28;20031;-78
2022/08/06 02:01:58;;;;;;;6.10;3.15;;;;;;;;;;4955853;28;20047;-80
2022/08/06 02:04:27;;;;;;;8.27;2.97;;;;;;;;;;4962555;28;20101;-77
2022/08/06 02:06:54;;;;;;;4.88;3.28;;;;;;;;;;4951507;28;20416;-78
2022/08/06 02:09:22;;;;;;;4.80;3.08;;;;;;;;;;4969058;28;20041;-78
2022/08/06 02:12:06;;;;;;;8.52;3.28;;;;;;;;;;4950646;28;20035;-78
2022/08/06 02:14:34;;;;;;;5.40;3.03;;;;;;;;;;4960939;28;20054;-79
2022/08/06 02:17:02;;;;;;;6.45;3.03;;;;;;;;;;4974718;28;20439;-77
2022/08/06 02:19:29;;;;;;;5.25;3.13;;;;;;;;;;4972399;28;20037;-76
2022/08/06 02:21:59;;;;;;;10.50;5.10;;;;;;;;;;4971097;28;20038;-77
2022/08/06 02:24:28;;;;;;;5.13;2.92;;;;;;;;;;4958773;28;20046;-78
2022/08/06 02:26:55;;;;;;;3.38;2.75;;;;;;;;;;4962069;28;20480;-79
2022/08/06 02:29:21;;;;;;;5.60;2.80;;;;;;;;;;4959061;28;20027;-78
2022/08/06 02:31:47;;;;;;;4.90;2.50;;;;;;;;;;4963713;28;20707;-78
2022/08/06 02:34:13;;;;;;;3.70;2.38;;;;;;;;;;4965372;28;20027;-77
2022/08/06 02:36:46;;;;;;;3.78;2.08;;;;;;;;;;4960450;28;20493;-77
2022/08/06 02:39:29;;;;;;;3.38;2.50;;;;;;;;;;4965455;28;20047;-78
2022/08/06 02:42:12;;;;;;;7.03;2.42;;;;;;;;;;4963484;28;20050;-77
2022/08/06 02:45:00;;;;;;;2.85;2.03;;;;;;;;;;4968692;28;20034;-78
2022/08/06 02:47:35;;;;;;;7.13;2.65;;;;;;;;;;4973316;28;20033;-79
2022/08/06 02:50:03;;;;;;;7.60;2.70;;;;;;;;;;4962993;28;20062;-79
2022/08/06 02:52:41;;;;;;;2.75;2.40;;;;;;;;;;4951134;28;20047;-79
2022/08/06 02:55:17;;;;;;;4.40;2.58;;;;;;;;;;4957442;28;20049;-78
2022/08/06 02:57:54;;;;;;;5.50;2.88;;;;;;;;;;4969418;28;20029;-77
2022/08/06 03:00:21;;;;;;;4.68;2.53;;;;;;;;;;4978790;28;20013;-78
2022/08/06 03:02:52;;;;;;;4.00;3.00;;;;;;;;;;4979503;28;20042;-77
2022/08/06 03:05:19;;;;;;;3.42;2.97;;;;;;;;;;4971628;28;20055;-77
2022/08/06 03:07:48;;;;;;;3.92;2.60;;;;;;;;;;4966106;28;20035;-78
2022/08/06 03:10:17;;;;;;;5.13;2.70;;;;;;;;;;4968307;28;20023;-77
2022/08/06 03:12:43;;;;;;;7.43;2.95;;;;;;;;;;4965645;28;20051;-78
2022/08/06 03:15:10;;;;;;;5.93;2.63;;;;;;;;;;4979863;28;20359;-79
2022/08/06 03:17:38;;;;;;;7.03;3.17;;;;;;;;;;4971816;28;20044;-77
2022/08/06 03:20:05;;;;;;;4.45;2.60;;;;;;;;;;4960907;28;20023;-78
2022/08/06 03:22:32;;;;;;;5.28;2.90;;;;;;;;;;4981211;28;20018;-78
2022/08/06 03:24:59;;;;;;;3.83;3.20;;;;;;;;;;4961073;28;20039;-77
2022/08/06 03:27:26;;;;;;;4.13;3.72;;;;;;;;;;4971459;28;20364;-77
2022/08/06 03:29:52;;;;;;;6.25;3.50;;;;;;;;;;4953725;28;20035;-79
2022/08/06 03:32:18;;;;;;;7.35;3.50;;;;;;;;;;4966372;28;20033;-78
2022/08/06 03:34:45;;;;;;;6.90;4.38;;;;;;;;;;4960323;28;20062;-76
2022/08/06 03:37:12;;;;;;;4.38;3.08;;;;;;;;;;4980842;28;20390;-78
2022/08/06 03:39:41;;;;;;;4.82;3.65;;;;;;;;;;4971761;28;20057;-77
2022/08/06 03:42:07;;;;;;;8.38;3.90;;;;;;;;;;4960162;28;20153;-76
2022/08/06 03:44:32;;;;;;;6.10;3.53;;;;;;;;;;4972659;28;20503;-77
2022/08/06 03:47:07;;;;;;;8.02;3.67;;;;;;;;;;4969442;28;20368;-77
2022/08/06 03:49:59;;;;;;;6.43;4.50;;;;;;;;;;4970377;28;20031;-76
2022/08/06 03:52:28;;;;;;;8.85;4.45;;;;;;;;;;4974785;28;20086;-77
2022/08/06 03:54:57;;;;;;;6.10;4.28;;;;;;;;;;4961192;28;20039;-76
2022/08/06 03:57:25;;;;;;;6.65;4.30;;;;;;;;;;4964696;28;20037;-76
2022/08/06 03:59:58;;;;;;;6.13;4.68;;;;;;;;;;4960661;28;20031;-78
2022/08/06 04:02:27;;;;;;;6.82;4.82;;;;;;;;;;4958163;28;20027;-77
2022/08/06 04:04:54;;;;;;;5.10;3.95;;;;;;;;;;4966746;28;20026;-78
2022/08/06 04:07:19;;;;;;;8.60;4.38;;;;;;;;;;4970153;28;20030;-78
2022/08/06 04:09:45;;;;;;;7.55;4.50;;;;;;;;;;4965931;28;20031;-77
2022/08/06 04:12:11;;;;;;;7.50;4.50;;;;;;;;;;4959371;28;20090;-77
2022/08/06 04:14:37;;;;;;;6.50;4.57;;;;;;;;;;4964454;28;20504;-76
2022/08/06 04:17:04;;;;;;;6.65;4.40;;;;;;;;;;4959108;28;20038;-76
2022/08/06 04:19:33;;;;;;;7.18;4.95;;;;;;;;;;4965118;28;20015;-78
2022/08/06 04:21:58;;;;;;;7.30;4.13;;;;;;;;;;4965621;28;20495;-76
2022/08/06 04:24:25;;;;;;;6.68;4.53;;;;;;;;;;4964768;28;20031;-77
2022/08/06 04:26:53;;;;;;;10.35;4.88;;;;;;;;;;4979903;28;20041;-77
2022/08/06 04:29:20;;;;;;;6.57;4.55;;;;;;;;;;4952482;28;20531;-77
2022/08/06 04:31:50;;;;;;;6.30;5.05;;;;;;;;;;4959274;28;20546;-77
2022/08/06 04:34:22;;;;;;;7.28;4.47;;;;;;;;;;4953059;28;20110;-78
2022/08/06 04:36:48;;;;;;;7.15;4.47;;;;;;;;;;4960037;28;20061;-78
2022/08/06 04:39:15;;;;;;;5.75;4.80;;;;;;;;;;4969160;28;20720;-78
2022/08/06 04:41:41;;;;;;;4.45;3.88;;;;;;;;;;4974344;28;20045;-77
2022/08/06 04:44:07;;;;;;;5.05;4.28;;;;;;;;;;4965876;28;20136;-78
2022/08/06 04:46:33;;;;;;;10.10;5.32;;;;;;;;;;4962825;28;20531;-79
2022/08/06 04:48:58;;;;;;;6.32;4.20;;;;;;;;;;4979034;28;20062;-76
2022/08/06 04:51:24;;;;;;;5.80;4.18;;;;;;;;;;4970529;28;20411;-77
2022/08/06 04:53:50;;;;;;;10.05;4.13;;;;;;;;;;4967232;28;20085;-76
2022/08/06 04:56:15;;;;;;;6.28;4.13;;;;;;;;;;4959306;28;20387;-75
2022/08/06 04:58:41;;;;;;;4.65;3.40;;;;;;;;;;4964429;28;20527;-77
2022/08/06 05:01:06;;;;;;;3.22;2.92;;;;;;;;;;4958318;28;20517;-77
2022/08/06 05:03:32;;;;;;;4.03;2.83;;;;;;;;;;4951964;28;20112;-76
2022/08/06 05:06:03;;;;;;;4.30;2.88;;;;;;;;;;4958585;28;20407;-76
2022/08/06 05:08:31;;;;;;;3.63;2.15;;;;;;;;;;4958110;28;20469;-78
2022/08/06 05:11:12;;;;;;;4.20;2.53;;;;;;;;;;4963510;28;20042;-76
2022/08/06 05:13:39;;;;;;;3.58;2.08;;;;;;;;;;4961961;28;20059;-78
2022/08/06 05:16:08;;;;;;;2.40;1.90;;;;;;;;;;4959411;28;20029;-75
2022/08/06 05:18:39;;;;;;;4.22;2.72;;;;;;;;;;4969978;28;20023;-76
2022/08/06 05:21:06;;;;;;;4.23;2.10;;;;;;;;;;4976605;28;20023;-74
2022/08/06 05:23:40;;;;;;;1.85;1.63;;;;;;;;;;4963074;28;20271;-76
2022/08/06 05:26:06;;;;;;;3.30;2.05;;;;;;;;;;4959042;28;20027;-78
2022/08/06 05:28:32;;;;;;;2.33;1.98;;;;;;;;;;4962846;28;20510;-79
2022/08/06 05:30:58;;;;;;;4.35;1.90;;;;;;;;;;4958379;28;20027;-79
2022/08/06 05:33:25;;;;;;;3.00;2.03;;;;;;;;;;4962869;28;20074;-77
2022/08/06 05:35:50;;;;;;;2.15;1.98;;;;;;;;;;4957829;28;20043;-78
2022/08/06 05:38:16;;;;;;;2.80;1.77;;;;;;;;;;4964999;28;20361;-78
2022/08/06 05:40:41;;;;;;;3.72;1.92;;;;;;;;;;4962393;28;20110;-77
2022/08/06 05:43:07;;;;;;;2.88;1.65;;;;;;;;;;4959731;28;20090;-77
2022/08/06 05:45:33;;;;;;;4.97;1.83;;;;;;;;;;4961664;28;20023;-77
2022/08/06 05:48:02;;;;;;;6.70;2.13;;;;;;;;;;4976581;28;20393;-76
2022/08/06 05:50:34;;;;;;;4.28;2.20;;;;;;;;;;4965725;28;20505;-75
2022/08/06 05:53:06;;;;;;;4.80;2.22;;;;;;;;;;4964510;28;20073;-78
2022/08/06 05:55:39;;;;;;;3.63;2.03;;;;;;;;;;4957522;28;20031;-78
2022/08/06 05:58:11;;;;;;;2.38;2.17;;;;;;;;;;4978801;28;20065;-75
2022/08/06 06:00:38;;;;;;;5.40;2.70;;;;;;;;;;4973480;28;20396;-76
2022/08/06 06:03:06;;;;;;;3.63;2.40;;;;;;;;;;4962378;28;20030;-78
2022/08/06 06:05:32;;;;;;;4.65;2.63;;;;;;;;;;4973954;28;20033;-77
2022/08/06 06:07:59;;;;;;;3.58;2.55;;;;;;;;;;4963698;28;20042;-77
2022/08/06 06:10:25;;;;;;;8.48;3.13;;;;;;;;;;4973436;28;20149;-77
2022/08/06 06:12:51;;;;;;;4.80;3.33;;;;;;;;;;4955894;28;20046;-77
2022/08/06 06:15:18;;;;;;;7.82;2.92;;;;;;;;;;4968551;28;20618;-75
2022/08/06 06:17:51;;;;;;;4.85;3.10;;;;;;;;;;4967128;28;20037;-76
2022/08/06 06:20:28;;;;;;;5.32;4.10;;;;;;;;;;4963255;28;20527;-79
2022/08/06 06:23:00;;;;;;;5.63;3.42;;;;;;;;;;4959752;28;20054;-77
2022/08/06 06:25:37;;;;;;;4.68;3.50;;;;;;;;;;4957684;28;20034;-78
2022/08/06 06:28:08;;;;;;;4.35;3.30;;;;;;;;;;4964976;28;20092;-78
2022/08/06 06:30:43;;;;;;;4.60;3.78;;;;;;;;;;4987128;28;20031;-78
2022/08/06 06:33:20;;;;;;;5.55;2.80;;;;;;;;;;4957269;28;20050;-78
2022/08/06 06:35:54;;;;;;;5.47;2.90;;;;;;;;;;4960123;28;20046;-78
2022/08/06 06:38:36;;;;;;;6.57;3.17;;;;;;;;;;4965854;28;20457;-78
2022/08/06 06:41:26;;;;;;;9.30;3.25;;;;;;;;;;4957934;28;20082;-77
2022/08/06 06:44:04;;;;;;;4.13;2.83;;;;;;;;;;4955720;28;20043;-78
2022/08/06 06:46:39;;;;;;;4.53;2.85;;;;;;;;;;4959469;28;20463;-78
2022/08/06 06:49:32;;;;;;;6.05;3.22;;;;;;;;;;4963333;28;20399;-76
2022/08/06 06:52:05;;;;;;;4.18;2.38;;;;;;;;;;4982990;28;20035;-79
2022/08/06 06:54:44;;;;;;;2.92;2.40;;;;;;;;;;4964658;28;20434;-78
2022/08/06 06:57:12;;;;;;;2.60;2.40;;;;;;;;;;4965377;28;20122;-79
2022/08/06 06:59:43;;;;;;;4.30;2.45;;;;;;;;;;4966751;28;20046;-77
2022/08/06 07:02:24;;;;;;;3.25;2.45;;;;;;;;;;4982944;28;20066;-78
2022/08/06 07:04:51;;;;;;;6.90;2.38;;;;;;;;;;4975994;28;20089;-78
2022/08/06 07:07:18;;;;;;;2.35;2.10;;;;;;;;;;4966271;28;20359;-78
2022/08/06 07:09:45;;;;;;;3.65;2.28;;;;;;;;;;4969839;28;20520;-80
2022/08/06 07:12:14;;;;;;;3.90;2.08;;;;;;;;;;4966386;28;20031;-77
2022/08/06 07:14:41;;;;;;;7.43;2.08;;;;;;;;;;4960596;28;20046;-79
2022/08/06 07:17:07;;;;;;;3.50;1.92;;;;;;;;;;4965471;28;20031;-77
2022/08/06 07:19:35;;;;;;;4.15;1.85;;;;;;;;;;4963344;28;20034;-78
2022/08/06 07:22:02;;;;;;;3.45;2.10;;;;;;;;;;4961486;28;20027;-77
2022/08/06 07:24:31;;;;;;;1.83;1.52;;;;;;;;;;4965350;28;20035;-78
2022/08/06 07:26:57;;;;;;;4.07;1.80;;;;;;;;;;4978080;28;20037;-77
2022/08/06 07:29:24;;;;;;;7.50;2.70;;;;;;;;;;4964856;28;20023;-77
2022/08/06 07:31:50;;;;;;;5.53;2.05;;;;;;;;;;4965590;28;20554;-76
2022/08/06 07:34:16;;;;;;;2.10;1.33;;;;;;;;;;4970642;28;20117;-78
2022/08/06 07:36:54;;;;;;;1.70;1.20;;;;;;;;;;4966217;28;20054;-78
2022/08/06 07:39:26;;;;;;;6.78;1.98;;;;;;;;;;4964105;28;20092;-77
2022/08/06 07:41:54;;;;;;;3.38;1.30;;;;;;;;;;4973305;28;20093;-78
2022/08/06 07:44:25;;;;;;;2.78;1.20;;;;;;;;;;4962155;28;20506;-79
2022/08/06 07:46:54;;;;;;;2.10;1.23;;;;;;;;;;4962996;28;20096;-78
2022/08/06 07:49:24;;;;;;;3.35;1.25;;;;;;;;;;4962830;28;20038;-81
2022/08/06 07:51:52;;;;;;;2.75;1.40;;;;;;;;;;4965912;28;20035;-78
2022/08/06 07:54:19;;;;;;;2.80;1.30;;;;;;;;;;4966035;28;20066;-77
2022/08/06 07:56:45;;;;;;;1.40;1.10;;;;;;;;;;4960314;28;20031;-77
2022/08/06 07:59:11;;;;;;;4.22;1.30;;;;;;;;;;4965735;28;20371;-77
2022/08/06 08:01:38;;;;;;;6.38;1.60;;;;;;;;;;4963682;28;20570;-77
2022/08/06 08:06:53;;;;;;;1.13;0.85;;;;;;;;;;4963601;28;20065;-77
2022/08/06 08:09:22;;;;;;;3.10;1.50;;;;;;;;;;4961670;28;20035;-78
2022/08/06 08:11:49;;;;;;;2.70;1.25;;;;;;;;;;4974837;28;20481;-76
2022/08/06 08:14:20;;;;;;;2.17;1.20;;;;;;;;;;4971945;28;20062;-79
2022/08/06 08:16:46;;;;;;;5.63;1.50;;;;;;;;;;4967742;28;20031;-76
2022/08/06 08:19:32;;;;;;;3.75;1.23;;;;;;;;;;4973804;28;20522;-77
2022/08/06 08:22:18;;;;;;;2.25;0.80;;;;;;;;;;4958632;28;20413;-78
2022/08/06 08:24:45;;;;;;;3.05;1.30;;;;;;;;;;4958859;28;20031;-77
2022/08/06 08:27:11;;;;;;;7.63;2.17;;;;;;;;;;4970610;28;20031;-78
2022/08/06 08:29:38;;;;;;;1.65;1.17;;;;;;;;;;4960810;28;20518;-77
2022/08/06 08:32:07;;;;;;;3.47;1.20;;;;;;;;;;4963802;28;20042;-78
2022/08/06 08:34:32;;;;;;;0.93;0.68;;;;;;;;;;4961005;28;20026;-77
2022/08/06 08:36:58;;;;;;;3.08;0.70;;;;;;;;;;4968528;28;20478;-77
2022/08/06 08:39:24;;;;;;;2.05;1.10;;;;;;;;;;4974805;28;20038;-76
2022/08/06 08:41:54;;;;;;;5.28;1.05;;;;;;;;;;4967423;28;20037;-79
2022/08/06 08:44:24;;;;;;;2.25;1.05;;;;;;;;;;4961604;28;20534;-77
2022/08/06 08:46:50;;;;;;;1.15;0.75;;;;;;;;;;4963788;28;20039;-79
2022/08/06 08:49:19;;;;;;;2.45;0.93;;;;;;;;;;4971929;28;20027;-79
2022/08/06 08:51:46;;;;;;;3.55;0.80;;;;;;;;;;4962569;28;20034;-78
2022/08/06 08:54:15;;;;;;;0.95;0.73;;;;;;;;;;4965964;28;20035;-77
2022/08/06 08:56:41;;;;;;;1.33;0.70;;;;;;;;;;4965161;28;20035;-78
2022/08/06 08:59:07;;;;;;;3.58;1.85;;;;;;;;;;4971659;28;20046;-77
2022/08/06 09:01:34;;;;;;;1.20;1.10;;;;;;;;;;4980455;28;20042;-78
2022/08/06 09:04:03;;;;;;;2.60;1.00;;;;;;;;;;4981985;28;20086;-76
2022/08/06 09:06:29;;;;;;;6.65;1.20;;;;;;;;;;4963898;28;20031;-78
2022/08/06 09:08:55;;;;;;;1.85;0.75;;;;;;;;;;4971167;28;20031;-78
2022/08/06 09:11:22;;;;;;;3.47;2.10;;;;;;;;;;4964575;28;20027;-79
2022/08/06 09:13:48;;;;;;;3.53;1.00;;;;;;;;;;4960762;28;20066;-76
2022/08/06 09:16:13;;;;;;;1.50;0.73;;;;;;;;;;4961550;28;20035;-77
2022/08/06 09:18:39;;;;;;;2.30;1.20;;;;;;;;;;4961625;28;20034;-78
2022/08/06 09:21:05;;;;;;;2.92;0.85;;;;;;;;;;4960930;28;20031;-75
2022/08/06 09:23:31;;;;;;;1.83;0.77;;;;;;;;;;4958177;28;20431;-79
2022/08/06 09:26:03;;;;;;;1.40;0.57;;;;;;;;;;4966450;28;20035;-78
2022/08/06 09:28:30;;;;;;;;;;;;;;;;;;4965385;28;20527;-78
2022/08/06 09:31:05;;;;;;;2.65;1.00;;;;;;;;;;4962099;28;20032;-79
2022/08/06 09:33:36;;;;;;;2.22;1.00;;;;;;;;;;4964713;28;20522;-76
2022/08/06 09:36:07;;;;;;;3.10;1.00;;;;;;;;;;4983255;28;20431;-79
2022/08/06 09:38:55;;;;;;;0.77;0.65;;;;;;;;;;4973028;28;20027;-79
2022/08/06 09:41:22;;;;;;;5.45;0.93;;;;;;;;;;4934351;29;20133;-76
2022/08/06 09:43:50;;;;;;;0.57;0.57;;;;;;;;;;4957633;28;20045;-77
2022/08/06 09:46:34;;;;;;;1.38;0.63;;;;;;;;;;4971763;28;20035;-77
2022/08/06 09:49:01;;;;;;;1.25;1.00;;;;;;;;;;4953070;28;20114;-77
2022/08/06 09:51:27;;;;;;;1.17;0.65;;;;;;;;;;4977529;28;20030;-78
2022/08/06 09:53:58;;;;;;;1.85;0.90;;;;;;;;;;4957156;28;20031;-78
2022/08/06 09:56:25;;;;;;;0.47;0.40;;;;;;;;;;4963348;28;20113;-77
2022/08/06 09:58:58;;;;;;;1.77;0.55;;;;;;;;;;4962839;28;20502;-77
2022/08/06 10:01:24;;;;;;;0.88;0.45;;;;;;;;;;4950845;28;20410;-78
2022/08/06 10:03:53;;;;;;;0.95;0.50;;;;;;;;;;4955643;28;20038;-77
2022/08/06 10:06:21;;;;;;;1.70;1.02;;;;;;;;;;4958011;28;20062;-78
2022/08/06 10:08:49;;;;;;;3.50;0.90;;;;;;;;;;4973032;28;20093;-77
2022/08/06 10:11:15;;;;;;;4.43;1.75;;;;;;;;;;4961278;28;20026;-79
2022/08/06 10:13:46;;;;;;;4.25;0.60;;;;;;;;;;4957964;28;20469;-77
2022/08/06 10:16:18;;;;;;;4.28;0.80;;;;;;;;;;4962682;28;20034;-78
2022/08/06 10:18:47;;;;;;;;;;;;;;;;;;4963251;28;20517;-78
2022/08/06 10:21:16;;;;;;;0.57;0.57;;;;;;;;;;4964679;28;19914;-77
2022/08/06 10:23:46;;;;;;;1.63;0.68;;;;;;;;;;4967040;28;20452;-77
2022/08/06 10:26:18;;;;;;;1.33;0.50;;;;;;;;;;4962469;28;20019;-79
2022/08/06 10:28:45;;;;;;;0.82;0.82;;;;;;;;;;4963426;28;20024;-78
2022/08/06 10:31:14;;;;;;;2.20;0.50;;;;;;;;;;4962902;28;20042;-78
2022/08/06 10:34:04;;;;;;;2.22;0.93;;;;;;;;;;4968270;28;20042;-78
2022/08/06 10:36:40;;;;;;;2.30;0.65;;;;;;;;;;4942492;28;20075;-76
2022/08/06 10:39:06;;;;;;;6.28;1.38;;;;;;;;;;4955376;28;20543;-79
2022/08/06 10:41:35;;;;;;;4.28;0.68;;;;;;;;;;4978111;28;20054;-77
2022/08/06 10:44:01;;;;;;;0.52;0.50;;;;;;;;;;4960739;28;20034;-76
2022/08/06 10:46:28;;;;;;;2.15;0.60;;;;;;;;;;4972790;28;20027;-75
2022/08/06 10:48:54;;;;;;;0.82;0.73;;;;;;;;;;4970244;28;20093;-77
2022/08/06 10:51:21;;;;;;;2.50;0.60;;;;;;;;;;4966094;28;20439;-78
2022/08/06 10:53:46;;;;;;;1.88;0.60;;;;;;;;;;4958909;28;20027;-76
2022/08/06 10:56:16;;;;;;;2.08;0.57;;;;;;;;;;4981842;28;20038;-76
2022/08/06 10:58:43;;;;;;;5.57;0.90;;;;;;;;;;4971056;28;20120;-77
2022/08/06 11:01:35;;;;;;;0.85;0.70;;;;;;;;;;4960148;28;20170;-76
2022/08/06 11:04:48;;;;;;;2.58;0.80;;;;;;;;;;4977274;28;20049;-76
2022/08/06 11:07:36;;;;;;;1.50;0.70;;;;;;;;;;4908808;29;20486;-80
2022/08/06 11:10:26;;;;;;;1.63;0.88;;;;;;;;;;4905323;29;20092;-79
2022/08/06 11:13:21;;;;;;;0.50;0.50;;;;;;;;;;4909126;29;20442;-78
2022/08/06 11:15:47;;;;;;;2.28;0.63;;;;;;;;;;4944809;28;20031;-76
2022/08/06 11:18:13;;;;;;;1.70;0.73;;;;;;;;;;4955859;28;20022;-77
2022/08/06 11:20:44;;;;;;;4.65;0.80;;;;;;;;;;4970011;28;20042;-75
2022/08/06 11:23:12;;;;;;;4.35;0.80;;;;;;;;;;4976853;28;20031;-78
2022/08/06 11:25:48;;;;;;;1.58;0.80;;;;;;;;;;4958305;28;20046;-78
2022/08/06 11:28:36;;;;;;;1.00;0.70;;;;;;;;;;4961372;28;20078;-76
2022/08/06 11:31:04;;;;;;;1.77;0.60;;;;;;;;;;4964117;28;20043;-76
2022/08/06 11:33:32;;;;;;;1.67;0.60;;;;;;;;;;4964946;28;20383;-76
2022/08/06 11:36:02;;;;;;;2.58;0.50;;;;;;;;;;4960589;28;20435;-77
2022/08/06 11:38:46;;;;;;;3.75;0.52;;;;;;;;;;4966798;28;20031;-77
2022/08/06 11:41:21;;;;;;;1.88;0.60;;;;;;;;;;4961502;28;20054;-78
2022/08/06 11:43:53;;;;;;;2.60;0.65;;;;;;;;;;4980614;28;20066;-79
2022/08/06 11:46:21;;;;;;;;;;;;;;;;;;4960388;28;20058;-79
2022/08/06 11:48:59;;;;;;;1.02;0.63;;;;;;;;;;4982443;28;19921;-77
2022/08/06 11:51:47;;;;;;;1.75;0.85;;;;;;;;;;4958766;28;20401;-78
2022/08/06 11:54:25;;;;;;;1.25;0.57;;;;;;;;;;4965095;28;20581;-77
2022/08/06 11:57:09;;;;;;;1.55;0.68;;;;;;;;;;4961638;28;20036;-80
2022/08/06 11:59:37;;;;;;;1.33;0.60;;;;;;;;;;4963858;28;20030;-77
2022/08/06 12:02:09;;;;;;;3.00;0.77;;;;;;;;;;4968002;28;20046;-80
2022/08/06 12:04:34;;;;;;;0.77;0.68;;;;;;;;;;4962490;28;20019;-77
2022/08/06 12:07:26;;;;;;;1.58;1.25;;;;;;;;;;4963493;28;20035;-77
2022/08/06 12:10:09;;;;;;;2.30;0.70;;;;;;;;;;4966205;28;20051;-78
2022/08/06 12:12:39;;;;;;;0.80;0.80;;;;;;;;;;4981493;28;20174;-80
2022/08/06 12:15:19;;;;;;;2.10;0.80;;;;;;;;;;4961718;28;20061;-76
2022/08/06 12:17:57;;;;;;;1.02;0.80;;;;;;;;;;4961865;28;20480;-78
2022/08/06 12:20:42;;;;;;;1.60;0.70;;;;;;;;;;4965452;28;20101;-79
2022/08/06 12:23:11;;;;;;;2.08;0.60;;;;;;;;;;4959538;28;20416;-77
2022/08/06 12:25:44;;;;;;;2.50;0.50;;;;;;;;;;4969369;28;20042;-77
2022/08/06 12:28:11;;;;;;;2.97;1.33;;;;;;;;;;4961943;28;20023;-78
2022/08/06 12:30:48;;;;;;;1.65;0.73;;;;;;;;;;4965991;28;20154;-78
2022/08/06 12:33:15;;;;;;;1.48;0.65;;;;;;;;;;4960850;28;20027;-78
2022/08/06 12:35:54;;;;;;;1.60;0.90;;;;;;;;;;4975379;28;20034;-77
2022/08/06 12:38:21;;;;;;;2.28;1.20;;;;;;;;;;4959298;28;20535;-79
2022/08/06 12:40:58;;;;;;;1.10;0.70;;;;;;;;;;4965545;28;20113;-79
2022/08/06 12:43:26;;;;;;;2.50;0.85;;;;;;;;;;4980047;28;20029;-77
2022/08/06 12:46:02;;;;;;;2.95;0.60;;;;;;;;;;4963774;28;20448;-79
2022/08/06 12:48:30;;;;;;;2.08;1.13;;;;;;;;;;4956140;28;20031;-78
2022/08/06 12:51:08;;;;;;;2.47;0.43;;;;;;;;;;4966767;28;20054;-79
2022/08/06 12:53:38;;;;;;;2.88;0.98;;;;;;;;;;4963336;28;20189;-78
2022/08/06 12:56:04;;;;;;;2.25;0.63;;;;;;;;;;4970462;28;20118;-77
2022/08/06 12:58:35;;;;;;;2.55;1.10;;;;;;;;;;4961283;28;20166;-77
2022/08/06 13:01:02;;;;;;;;;;;;;;;;;;4959499;28;20042;-77
2022/08/06 13:03:29;;;;;;;3.38;2.17;;;;;;;;;;4975618;28;19925;-79
2022/08/06 13:05:59;;;;;;;2.05;0.82;;;;;;;;;;4980655;28;20023;-78
2022/08/06 13:08:25;;;;;;;2.58;0.80;;;;;;;;;;4977602;28;20039;-79
2022/08/06 13:10:54;;;;;;;2.47;0.90;;;;;;;;;;4975782;28;20034;-78
2022/08/06 13:13:21;;;;;;;1.38;0.95;;;;;;;;;;4965222;28;20136;-77
2022/08/06 13:16:03;;;;;;;5.57;3.15;;;;;;;;;;4968870;28;20047;-78
2022/08/06 13:18:29;;;;;;;2.00;1.10;;;;;;;;;;4962824;28;20030;-78
2022/08/06 13:20:55;;;;;;;2.65;1.33;;;;;;;;;;4965161;28;20023;-77
2022/08/06 13:23:36;;;;;;;3.92;0.90;;;;;;;;;;4960328;28;20066;-77
2022/08/06 13:26:14;;;;;;;1.75;0.55;;;;;;;;;;4974052;28;20035;-78
2022/08/06 13:28:40;;;;;;;3.35;0.80;;;;;;;;;;4973423;28;20031;-78
2022/08/06 13:31:20;;;;;;;1.38;0.93;;;;;;;;;;4966960;28;20106;-79
2022/08/06 13:34:03;;;;;;;1.33;0.50;;;;;;;;;;4962646;28;20031;-78
2022/08/06 13:36:30;;;;;;;1.23;0.70;;;;;;;;;;4965185;28;20469;-77
2022/08/06 13:38:56;;;;;;;2.65;0.77;;;;;;;;;;4977003;28;20113;-78
2022/08/06 13:41:27;;;;;;;0.70;0.60;;;;;;;;;;4972520;28;20039;-76
2022/08/06 13:43:53;;;;;;;;;;;;;;;;;;4983107;28;20164;-79
2022/08/06 13:46:19;;;;;;;1.80;1.70;;;;;;;;;;4979304;28;19985;-79
2022/08/06 13:48:52;;;;;;;2.33;0.98;;;;;;;;;;4963387;28;20475;-79
2022/08/06 13:51:20;;;;;;;0.55;0.55;;;;;;;;;;4952026;28;20035;-76
2022/08/06 13:53:46;;;;;;;1.00;0.75;;;;;;;;;;4962459;28;20070;-77
2022/08/06 13:56:14;;;;;;;1.63;0.88;;;;;;;;;;4959789;28;20524;-78
2022/08/06 13:58:40;;;;;;;1.13;0.65;;;;;;;;;;4938119;28;20059;-78
2022/08/06 14:01:05;;;;;;;1.77;0.60;;;;;;;;;;4974969;28;20019;-76
2022/08/06 14:03:31;;;;;;;2.60;0.70;;;;;;;;;;4965827;28;20534;-78
2022/08/06 14:05:57;;;;;;;2.00;0.75;;;;;;;;;;4966073;28;20538;-77
2022/08/06 14:08:23;;;;;;;0.70;0.60;;;;;;;;;;4978756;28;20343;-75
2022/08/06 14:10:48;;;;;;;0.98;0.40;;;;;;;;;;4964702;28;20066;-78
2022/08/06 14:13:17;;;;;;;1.02;0.60;;;;;;;;;;4952524;28;20093;-77
2022/08/06 14:15:50;;;;;;;3.05;0.80;;;;;;;;;;4985462;28;20434;-78
2022/08/06 14:18:18;;;;;;;4.10;1.00;;;;;;;;;;4957552;28;20090;-78
2022/08/06 14:20:43;;;;;;;0.98;0.45;;;;;;;;;;4956095;28;20042;-78
2022/08/06 14:23:10;;;;;;;11.95;3.88;;;;;;;;;;4970694;28;20031;-78
2022/08/06 14:25:36;;;;;;;23.60;4.72;;;;;;;;;;4968312;28;20034;-77
2022/08/06 14:28:03;;;;;;;4.25;1.52;;;;;;;;;;4981860;28;20041;-79
2022/08/06 14:30:28;;;;;;;27.55;6.40;;;;;;;;;;4957166;28;20177;-79
2022/08/06 14:32:54;;;;;;;1.38;0.82;;;;;;;;;;4964059;28;20062;-78
2022/08/06 14:35:20;;;;;;;4.03;1.02;;;;;;;;;;4957292;28;20031;-78
2022/08/06 14:37:46;;;;;;;15.05;3.38;;;;;;;;;;4957259;28;20134;-78
2022/08/06 14:40:13;;;;;;;47.75;9.52;;;;;;;;;;4968867;28;20088;-78
2022/08/06 14:45:23;;;;;;;2.70;1.02;;;;;;;;;;4963724;28;20034;-77
2022/08/06 14:47:52;;;;;;;2.08;0.70;;;;;;;;;;4961650;28;20035;-76
2022/08/06 14:50:19;;;;;;;4.30;0.80;;;;;;;;;;4962542;28;20065;-76
2022/08/06 14:52:45;;;;;;;1.63;0.77;;;;;;;;;;4964112;28;20065;-76
2022/08/06 14:55:13;;;;;;;5.80;2.10;;;;;;;;;;4964288;28;20062;-76
2022/08/06 14:57:44;;;;;;;4.25;1.00;;;;;;;;;;4975986;28;20041;-77
2022/08/06 15:00:10;;;;;;;0.75;0.55;;;;;;;;;;4967145;28;20039;-76
2022/08/06 15:02:35;;;;;;;0.55;0.52;;;;;;;;;;4957563;28;20038;-76
2022/08/06 15:05:01;;;;;;;1.40;0.60;;;;;;;;;;4957337;28;20022;-77